Time;durP1;ratioP1;P1;durP2;ratioP2;P2;SDS_P1;SDS_P2;PMS_P1;PMS_P2;Temp;Humidity;BMP_temperature;BMP_pressure;BME280_temperature;BME280_humidity;BME280_pressure;Samples;Min_cycle;Max_cycle;Signal;HPM_P1;HPM_P2
2022/04/27 00:00:31;;;;;;;5.20;1.98;;;;;;;15.06;55.47;94849.19;4971585;28;20216;-62
2022/04/27 00:02:57;;;;;;;2.78;1.60;;;;;;;15.11;55.31;94850.28;4975190;28;20212;-62
2022/04/27 00:05:23;;;;;;;4.40;1.88;;;;;;;15.00;55.63;94853.38;4984219;28;20224;-62
2022/04/27 00:07:49;;;;;;;2.95;1.80;;;;;;;14.97;55.67;94849.28;4965615;28;20240;-62
2022/04/27 00:10:15;;;;;;;4.40;2.15;;;;;;;14.91;55.84;94857.13;4963303;28;20367;-61
2022/04/27 00:12:41;;;;;;;2.28;1.83;;;;;;;14.90;56.08;94852.84;4970974;28;20224;-62
2022/04/27 00:15:07;;;;;;;3.15;1.88;;;;;;;14.77;56.45;94851.63;4971386;28;20227;-64
2022/04/27 00:17:33;;;;;;;3.20;2.05;;;;;;;14.82;56.34;94853.75;4975153;28;20231;-65
2022/04/27 00:19:59;;;;;;;3.22;1.70;;;;;;;14.77;56.24;94854.28;4961314;28;20235;-64
2022/04/27 00:22:25;;;;;;;2.55;1.80;;;;;;;14.74;56.30;94848.53;4968729;28;20293;-65
2022/04/27 00:24:50;;;;;;;2.75;1.80;;;;;;;14.71;56.44;94848.91;4969632;28;20235;-65
2022/04/27 00:27:15;;;;;;;3.60;1.88;;;;;;;14.59;56.90;94851.16;4970967;28;20270;-64
2022/04/27 00:29:41;;;;;;;4.38;1.80;;;;;;;14.62;56.63;94850.81;4975617;28;20231;-65
2022/04/27 00:32:07;;;;;;;2.72;1.80;;;;;;;14.66;56.64;94848.63;4966833;28;20272;-65
2022/04/27 00:34:33;;;;;;;2.85;1.42;;;;;;;14.55;56.77;94845.41;4950349;28;20362;-65
2022/04/27 00:36:58;;;;;;;2.20;2.00;;;;;;;14.56;56.98;94844.38;4965107;28;20221;-64
2022/04/27 00:39:23;;;;;;;3.10;1.67;;;;;;;14.51;57.15;94851.19;4945826;28;20223;-65
2022/04/27 00:42:02;;;;;;;2.80;2.03;;;;;;;14.53;56.95;94838.66;4968085;28;20192;-65
2022/04/27 00:44:32;;;;;;;4.57;2.28;;;;;;;14.47;57.13;94849.94;4968191;28;20243;-65
2022/04/27 00:46:58;;;;;;;4.03;2.08;;;;;;;14.51;57.02;94849.41;4965288;28;20240;-65
2022/04/27 00:49:24;;;;;;;5.82;2.20;;;;;;;14.41;57.04;94848.81;4980444;28;20270;-65
2022/04/27 00:51:50;;;;;;;2.17;1.98;;;;;;;14.31;57.57;94850.91;4969270;28;20364;-65
2022/04/27 00:54:18;;;;;;;2.55;1.90;;;;;;;14.34;57.46;94851.34;4966272;28;20348;-65
2022/04/27 00:56:44;;;;;;;2.20;1.95;;;;;;;14.32;57.71;94845.41;4965086;28;20288;-65
2022/04/27 00:59:09;;;;;;;2.58;1.90;;;;;;;14.24;57.71;94852.59;4966068;28;20244;-65
2022/04/27 01:01:35;;;;;;;2.33;1.77;;;;;;;14.30;57.50;94857.16;4969590;28;20229;-63
2022/04/27 01:04:01;;;;;;;2.95;1.80;;;;;;;14.22;57.86;94850.16;4966035;28;20303;-65
2022/04/27 01:06:27;;;;;;;4.70;1.83;;;;;;;14.21;58.08;94863.53;4991510;28;20213;-65
2022/04/27 01:08:53;;;;;;;2.15;1.60;;;;;;;14.18;58.01;94856.78;4987513;28;20207;-64
2022/04/27 01:11:19;;;;;;;2.03;1.50;;;;;;;14.16;58.19;94853.47;4973431;28;20228;-66
2022/04/27 01:13:45;;;;;;;2.53;1.70;;;;;;;14.01;58.49;94848.16;4979230;28;20224;-65
2022/04/27 01:16:10;;;;;;;3.22;1.80;;;;;;;13.92;58.67;94851.84;4980627;28;20229;-65
2022/04/27 01:18:36;;;;;;;4.85;1.65;;;;;;;13.94;58.76;94852.50;4971587;28;20227;-65
2022/04/27 01:21:05;;;;;;;2.10;1.80;;;;;;;13.85;59.06;94848.28;4970456;28;20223;-65
2022/04/27 01:23:31;;;;;;;2.90;1.75;;;;;;;13.75;59.46;94852.97;4970384;28;20221;-65
2022/04/27 01:26:05;;;;;;;4.22;2.08;;;;;;;13.76;59.38;94852.78;4961524;28;20235;-66
2022/04/27 01:28:31;;;;;;;4.53;2.25;;;;;;;13.66;59.97;94852.22;4947467;28;20229;-65
2022/04/27 01:30:59;;;;;;;2.25;1.70;;;;;;;13.62;59.96;94853.53;4955041;28;20228;-65
2022/04/27 01:33:26;;;;;;;4.13;2.10;;;;;;;13.54;60.36;94851.75;4964162;28;20209;-65
2022/04/27 01:35:52;;;;;;;4.68;2.20;;;;;;;13.57;60.19;94851.41;4965002;28;20209;-65
2022/04/27 01:38:18;;;;;;;2.20;1.88;;;;;;;13.61;60.21;94849.25;4964437;28;20215;-65
2022/04/27 01:40:47;;;;;;;2.28;1.98;;;;;;;13.64;59.87;94857.66;4969474;28;20256;-65
2022/04/27 01:43:16;;;;;;;2.42;1.90;;;;;;;13.64;60.02;94848.91;4968489;28;20224;-65
2022/04/27 01:45:43;;;;;;;3.42;2.15;;;;;;;13.63;60.07;94856.03;4969323;28;20286;-65
2022/04/27 01:48:12;;;;;;;3.38;1.88;;;;;;;13.68;60.01;94850.19;4970238;28;20188;-65
2022/04/27 01:50:38;;;;;;;2.80;1.75;;;;;;;13.62;59.99;94853.53;4967502;28;20255;-65
2022/04/27 01:55:48;;;;;;;2.55;2.05;;;;;;;13.43;60.84;94846.88;4966031;28;20270;-64
2022/04/27 01:58:15;;;;;;;4.32;2.20;;;;;;;13.42;60.77;94847.88;4969601;28;20229;-64
2022/04/27 02:00:40;;;;;;;3.30;1.90;;;;;;;13.39;60.77;94846.41;4970344;28;20231;-64
2022/04/27 02:03:06;;;;;;;4.97;2.38;;;;;;;13.23;61.43;94844.63;4971592;28;20196;-64
2022/04/27 02:05:31;;;;;;;3.40;1.85;;;;;;;13.24;61.33;94846.28;4960198;28;20271;-64
2022/04/27 02:07:58;;;;;;;4.28;2.42;;;;;;;13.19;61.62;94847.78;4965513;28;20287;-65
2022/04/27 02:10:23;;;;;;;2.20;2.00;;;;;;;13.27;61.65;94839.84;4963773;28;20224;-65
2022/04/27 02:12:49;;;;;;;3.10;2.10;;;;;;;13.25;61.63;94836.53;4966904;28;20228;-64
2022/04/27 02:15:14;;;;;;;3.00;2.28;;;;;;;13.26;61.74;94840.88;4973843;28;20215;-65
2022/04/27 02:17:40;;;;;;;3.53;2.25;;;;;;;13.29;61.67;94842.34;4962541;28;20240;-64
2022/04/27 02:20:06;;;;;;;3.42;1.95;;;;;;;13.19;62.11;94845.97;4976683;28;20227;-64
2022/04/27 02:22:33;;;;;;;4.43;2.50;;;;;;;13.20;62.02;94845.00;4979695;28;20279;-65
2022/04/27 02:25:00;;;;;;;3.65;2.30;;;;;;;13.12;61.96;94842.34;4965993;28;20246;-64
2022/04/27 02:27:26;;;;;;;2.65;2.20;;;;;;;13.11;61.92;94838.09;4961628;28;20259;-65
2022/04/27 02:29:51;;;;;;;3.47;1.92;;;;;;;13.16;61.97;94848.97;4967817;28;20219;-64
2022/04/27 02:32:18;;;;;;;2.53;2.00;;;;;;;13.15;62.00;94842.03;4975699;28;20247;-65
2022/04/27 02:34:44;;;;;;;2.08;1.80;;;;;;;13.21;61.80;94837.88;4983546;28;20226;-64
2022/04/27 02:37:09;;;;;;;5.15;1.98;;;;;;;13.18;61.78;94846.97;4963405;28;20229;-65
2022/04/27 02:39:34;;;;;;;3.65;2.05;;;;;;;13.11;61.93;94846.00;4968230;28;20227;-64
2022/04/27 02:42:00;;;;;;;3.22;1.70;;;;;;;13.10;62.23;94840.91;4966452;28;20199;-65
2022/04/27 02:44:25;;;;;;;3.13;1.77;;;;;;;13.00;62.40;94835.81;4970731;28;20242;-65
2022/04/27 02:46:51;;;;;;;3.97;2.45;;;;;;;12.97;62.35;94849.38;4972435;28;20220;-65
2022/04/27 02:52:00;;;;;;;6.30;2.88;;;;;;;12.69;62.81;94846.31;4963982;28;20330;-65
2022/04/27 02:54:26;;;;;;;3.63;2.72;;;;;;;12.75;63.04;94849.09;4958242;28;20250;-65
2022/04/27 02:56:51;;;;;;;5.28;2.70;;;;;;;12.82;62.82;94849.25;4969590;28;20219;-65
2022/04/27 02:59:17;;;;;;;5.28;2.88;;;;;;;12.95;62.09;94846.06;4968968;28;20235;-65
2022/04/27 03:01:43;;;;;;;3.00;2.70;;;;;;;12.86;62.46;94839.19;4966636;28;20256;-65
2022/04/27 03:04:09;;;;;;;4.25;2.40;;;;;;;12.81;63.12;94844.97;4971881;28;20313;-66
2022/04/27 03:06:34;;;;;;;4.30;2.72;;;;;;;12.69;63.46;94841.84;4961474;28;20270;-65
2022/04/27 03:09:00;;;;;;;2.42;2.22;;;;;;;12.70;63.68;94842.69;4968896;28;20208;-65
2022/04/27 03:11:25;;;;;;;3.58;2.90;;;;;;;12.61;63.60;94847.13;4964782;28;20224;-65
2022/04/27 03:13:51;;;;;;;3.80;3.22;;;;;;;12.70;62.31;94846.16;4971674;28;20244;-65
2022/04/27 03:16:17;;;;;;;4.22;3.83;;;;;;;12.77;61.61;94843.66;4973931;28;20216;-65
2022/04/27 03:18:43;;;;;;;8.90;3.88;;;;;;;12.76;61.24;94856.03;4967375;28;20229;-65
2022/04/27 03:21:09;;;;;;;5.88;4.20;;;;;;;12.71;60.54;94850.44;4969344;28;20699;-66
2022/04/27 03:23:35;;;;;;;7.65;3.88;;;;;;;12.68;60.57;94858.69;4970851;28;20236;-65
2022/04/27 03:26:00;;;;;;;5.00;4.50;;;;;;;12.60;60.52;94853.41;4976111;28;20224;-66
2022/04/27 03:28:26;;;;;;;7.53;4.50;;;;;;;12.47;60.88;94858.38;4980502;28;20310;-64
2022/04/27 03:30:51;;;;;;;6.55;4.32;;;;;;;12.57;60.43;94861.69;4971139;28;20228;-63
2022/04/27 03:33:17;;;;;;;6.30;4.45;;;;;;;12.55;60.32;94859.19;4967287;28;20278;-65
2022/04/27 03:35:42;;;;;;;8.90;4.88;;;;;;;12.49;60.35;94866.97;4981371;28;20242;-63
2022/04/27 03:38:09;;;;;;;6.43;4.40;;;;;;;12.41;60.51;94870.44;4971148;28;20220;-65
2022/04/27 03:40:35;;;;;;;9.45;4.78;;;;;;;12.43;60.70;94872.88;4970372;28;20260;-65
2022/04/27 03:43:01;;;;;;;10.18;4.93;;;;;;;12.43;60.51;94868.47;4968228;28;20229;-63
2022/04/27 03:45:27;;;;;;;8.52;5.00;;;;;;;12.58;59.99;94873.84;4967167;28;20210;-63
2022/04/27 03:47:52;;;;;;;6.10;4.88;;;;;;;12.54;59.87;94876.03;4967905;28;20222;-63
2022/04/27 03:50:18;;;;;;;6.60;4.38;;;;;;;12.32;60.78;94876.69;4966190;28;20251;-64
2022/04/27 03:52:44;;;;;;;8.52;4.88;;;;;;;12.45;60.67;94878.81;4982045;28;20235;-65
2022/04/27 03:55:10;;;;;;;8.82;4.82;;;;;;;12.53;60.26;94881.44;4969048;28;20226;-65
2022/04/27 03:57:37;;;;;;;11.52;5.53;;;;;;;12.60;60.00;94886.91;4974260;28;20214;-66
2022/04/27 04:00:04;;;;;;;9.13;4.65;;;;;;;12.54;60.47;94888.38;4984586;28;20219;-64
2022/04/27 04:02:30;;;;;;;5.68;4.55;;;;;;;12.50;60.03;94887.06;4973023;28;20272;-64
2022/04/27 04:04:55;;;;;;;10.45;4.95;;;;;;;12.57;60.14;94895.97;4964620;28;20247;-65
2022/04/27 04:07:21;;;;;;;4.78;4.07;;;;;;;12.67;60.01;94898.41;4973552;28;20266;-64
2022/04/27 04:09:46;;;;;;;9.35;5.00;;;;;;;12.65;59.78;94895.94;4975752;28;20224;-64
2022/04/27 04:12:13;;;;;;;5.82;4.40;;;;;;;12.60;60.06;94905.34;4969056;28;20239;-64
2022/04/27 04:14:39;;;;;;;13.75;4.60;;;;;;;12.67;60.31;94916.88;4965631;28;20239;-64
2022/04/27 04:17:04;;;;;;;8.07;4.97;;;;;;;12.69;60.09;94902.53;4965062;28;20231;-64
2022/04/27 04:19:32;;;;;;;8.65;4.53;;;;;;;12.71;59.68;94907.66;4969894;28;20316;-64
2022/04/27 04:21:59;;;;;;;8.48;4.80;;;;;;;12.63;60.19;94913.75;4962841;28;20346;-65
2022/04/27 04:24:24;;;;;;;8.65;4.50;;;;;;;12.71;59.86;94912.91;4961725;28;20209;-64
2022/04/27 04:29:34;;;;;;;6.13;4.95;;;;;;;12.76;59.91;94915.88;4966015;28;20274;-64
2022/04/27 04:32:00;;;;;;;7.28;4.63;;;;;;;12.74;60.05;94908.13;4969122;28;20236;-65
2022/04/27 04:34:26;;;;;;;6.60;4.80;;;;;;;12.77;60.16;94920.16;4974039;28;20282;-65
2022/04/27 04:36:51;;;;;;;6.13;4.93;;;;;;;12.79;60.02;94916.38;4987633;28;20220;-64
2022/04/27 04:39:17;;;;;;;9.52;4.80;;;;;;;12.77;60.23;94922.78;4964387;28;20236;-65
2022/04/27 04:41:42;;;;;;;6.18;4.75;;;;;;;12.83;60.36;94921.31;4962025;28;20228;-65
2022/04/27 04:44:07;;;;;;;11.13;5.20;;;;;;;12.79;60.68;94916.38;4963046;28;20224;-65
2022/04/27 04:46:33;;;;;;;8.27;5.63;;;;;;;12.88;60.51;94924.25;4964636;28;20242;-64
2022/04/27 04:48:58;;;;;;;9.27;5.47;;;;;;;12.91;60.38;94922.13;4969471;28;20220;-65
2022/04/27 04:51:24;;;;;;;9.68;4.75;;;;;;;13.03;60.28;94933.97;4964634;28;20205;-64
2022/04/27 04:53:49;;;;;;;7.95;5.22;;;;;;;12.98;60.80;94925.72;4968183;28;20201;-65
2022/04/27 04:56:15;;;;;;;7.15;4.90;;;;;;;13.11;60.50;94935.75;4976558;28;20634;-65
2022/04/27 04:58:40;;;;;;;9.00;4.90;;;;;;;13.14;60.38;94935.41;4976681;28;20270;-66
2022/04/27 05:01:06;;;;;;;6.55;4.50;;;;;;;13.19;60.67;94943.66;4964027;28;20269;-67
2022/04/27 05:03:36;;;;;;;10.05;4.70;;;;;;;13.24;60.65;94945.78;4983280;28;20203;-65
2022/04/27 05:06:02;;;;;;;7.50;4.82;;;;;;;13.26;60.64;94949.13;4969125;28;20261;-65
2022/04/27 05:08:27;;;;;;;5.38;4.30;;;;;;;13.21;61.04;94946.97;4967707;28;20246;-66
2022/04/27 05:10:53;;;;;;;5.95;4.55;;;;;;;13.39;60.62;94944.13;4963009;28;20227;-65
2022/04/27 05:13:19;;;;;;;8.82;4.63;;;;;;;13.40;60.67;94944.94;4972255;28;20220;-65
2022/04/27 05:15:44;;;;;;;9.40;5.45;;;;;;;13.46;60.63;94946.91;4967709;28;20258;-65
2022/04/27 05:18:09;;;;;;;7.68;4.63;;;;;;;13.51;60.50;94941.94;4972691;28;20293;-66
2022/04/27 05:20:37;;;;;;;9.48;5.13;;;;;;;13.54;60.49;94944.22;4974067;28;20228;-72
2022/04/27 05:23:02;;;;;;;7.97;4.50;;;;;;;13.66;59.82;94940.22;4964130;28;20219;-67
2022/04/27 05:25:28;;;;;;;10.70;5.32;;;;;;;13.62;60.11;94944.19;4967493;28;20224;-67
2022/04/27 05:27:53;;;;;;;10.85;5.00;;;;;;;13.57;60.69;94945.69;4965410;28;20287;-66
2022/04/27 05:33:03;;;;;;;6.75;5.20;;;;;;;13.73;60.11;94942.97;4946522;28;20299;-66
2022/04/27 05:35:29;;;;;;;9.00;5.32;;;;;;;13.74;59.83;94942.00;4947528;28;20241;-66
2022/04/27 05:37:54;;;;;;;11.93;6.18;;;;;;;13.79;60.00;94939.66;4959090;28;20241;-66
2022/04/27 05:40:20;;;;;;;9.30;5.60;;;;;;;13.79;60.31;94942.31;4963486;28;20231;-66
2022/04/27 05:42:47;;;;;;;10.38;6.10;;;;;;;13.67;60.83;94939.22;4956158;28;20228;-67
2022/04/27 05:45:14;;;;;;;8.18;6.18;;;;;;;13.82;60.57;94947.25;4970009;28;20200;-66
2022/04/27 05:47:40;;;;;;;11.07;6.45;;;;;;;13.96;60.69;94940.38;4958055;28;20308;-65
2022/04/27 05:50:06;;;;;;;11.55;6.38;;;;;;;14.15;59.98;94946.22;4950558;28;20315;-66
2022/04/27 05:52:47;;;;;;;10.05;5.55;;;;;;;14.26;59.44;94945.81;4937210;28;20231;-67
2022/04/27 05:55:12;;;;;;;13.43;6.50;;;;;;;14.38;58.98;94951.50;4961244;28;20224;-68
2022/04/27 05:57:38;;;;;;;8.13;5.65;;;;;;;14.46;58.67;94932.91;4953031;28;20246;-68
2022/04/27 06:00:04;;;;;;;13.45;6.22;;;;;;;14.58;58.51;94941.31;4965912;28;20224;-67
2022/04/27 06:02:29;;;;;;;11.48;6.70;;;;;;;14.59;58.56;94946.41;4962167;28;20235;-67
2022/04/27 06:04:54;;;;;;;9.48;6.00;;;;;;;14.46;58.48;94952.28;4967706;28;20246;-65
2022/04/27 06:07:20;;;;;;;10.13;6.35;;;;;;;14.51;58.66;94943.78;4966565;28;20228;-65
2022/04/27 06:09:45;;;;;;;16.80;6.93;;;;;;;14.44;58.50;94948.16;4967390;28;20223;-65
2022/04/27 06:12:11;;;;;;;11.05;6.78;;;;;;;14.65;58.45;94948.38;4960118;28;20244;-68
2022/04/27 06:14:36;;;;;;;12.05;5.70;;;;;;;14.69;58.21;94951.47;4972414;28;20232;-67
2022/04/27 06:17:02;;;;;;;10.93;6.78;;;;;;;14.73;58.25;94950.94;4967423;28;20231;-67
2022/04/27 06:19:28;;;;;;;13.20;6.93;;;;;;;14.67;58.50;94953.47;4968115;28;20650;-68
2022/04/27 06:21:53;;;;;;;8.07;5.57;;;;;;;14.76;58.15;94947.13;4975408;28;20278;-68
2022/04/27 06:24:19;;;;;;;10.73;6.18;;;;;;;14.76;57.93;94953.22;4979298;28;20208;-67
2022/04/27 06:26:44;;;;;;;11.27;6.32;;;;;;;14.85;57.45;94950.50;4967565;28;20211;-67
2022/04/27 06:29:12;;;;;;;11.13;5.45;;;;;;;14.94;57.68;94950.25;4966874;28;20218;-76
2022/04/27 06:31:38;;;;;;;10.15;5.85;;;;;;;14.98;57.83;94946.22;4959891;28;20249;-71
2022/04/27 06:34:03;;;;;;;10.43;6.15;;;;;;;15.04;57.67;94946.50;4960412;28;20228;-68
2022/04/27 06:36:29;;;;;;;6.93;5.80;;;;;;;15.12;56.99;94951.72;4971077;28;20208;-67
2022/04/27 06:38:58;;;;;;;6.90;5.32;;;;;;;15.12;57.17;94943.78;4970853;28;20578;-65
2022/04/27 06:41:23;;;;;;;11.27;5.47;;;;;;;15.21;57.67;94946.16;4973467;28;20323;-67
2022/04/27 06:43:49;;;;;;;7.90;5.40;;;;;;;15.31;56.98;94945.88;4961942;28;20279;-70
2022/04/27 06:46:16;;;;;;;6.93;5.70;;;;;;;15.48;56.10;94940.44;4965501;28;20224;-72
2022/04/27 06:48:47;;;;;;;6.85;5.75;;;;;;;15.60;55.95;94947.69;4970210;28;20358;-72
2022/04/27 06:51:12;;;;;;;8.13;5.45;;;;;;;15.68;55.51;94951.25;4963625;28;20265;-71
2022/04/27 06:53:38;;;;;;;11.50;6.35;;;;;;;15.66;55.47;94946.13;4982566;28;20256;-67
2022/04/27 06:56:06;;;;;;;9.27;6.05;;;;;;;15.58;56.30;94952.38;4974074;28;20246;-66
2022/04/27 06:58:32;;;;;;;9.57;5.53;;;;;;;15.31;56.71;94951.19;4965801;28;20236;-66
2022/04/27 07:00:58;;;;;;;7.78;5.57;;;;;;;15.33;56.71;94943.06;4954498;28;20219;-67
2022/04/27 07:03:24;;;;;;;6.38;5.15;;;;;;;15.50;56.90;94943.69;4957094;28;20200;-67
2022/04/27 07:05:49;;;;;;;9.38;5.10;;;;;;;15.30;56.95;94946.91;4966205;28;20212;-68
2022/04/27 07:08:15;;;;;;;6.90;5.30;;;;;;;15.51;56.84;94948.00;4962132;28;20235;-68
2022/04/27 07:10:40;;;;;;;6.95;5.82;;;;;;;15.60;56.54;94944.22;4966260;28;20227;-68
2022/04/27 07:13:06;;;;;;;9.75;6.63;;;;;;;15.81;55.98;94946.97;4975936;28;20254;-66
2022/04/27 07:15:32;;;;;;;16.50;6.38;;;;;;;15.76;55.66;94944.06;4963988;28;20203;-67
2022/04/27 07:17:58;;;;;;;9.02;6.05;;;;;;;15.74;55.63;94951.38;4961672;28;20224;-67
2022/04/27 07:20:23;;;;;;;8.05;5.55;;;;;;;15.75;56.08;94939.78;4962867;28;20384;-66
2022/04/27 07:22:48;;;;;;;9.25;6.30;;;;;;;15.88;55.35;94945.22;4972254;28;20228;-70
2022/04/27 07:25:18;;;;;;;8.52;6.28;;;;;;;15.91;55.42;94948.53;4960617;28;20250;-63
2022/04/27 07:27:43;;;;;;;10.75;6.22;;;;;;;15.97;55.03;94947.78;4969240;28;20283;-70
2022/04/27 07:30:09;;;;;;;7.55;5.90;;;;;;;16.09;54.53;94949.75;4969731;28;20328;-72
2022/04/27 07:32:35;;;;;;;8.75;6.18;;;;;;;16.01;54.53;94946.38;4968606;28;20236;-65
2022/04/27 07:35:00;;;;;;;8.73;7.28;;;;;;;16.12;54.88;94947.72;4965888;28;20232;-68
2022/04/27 07:37:26;;;;;;;9.80;6.55;;;;;;;16.19;54.64;94946.78;4971248;28;20276;-67
2022/04/27 07:39:51;;;;;;;9.98;5.60;;;;;;;16.18;54.46;94947.81;4967125;28;20252;-67
2022/04/27 07:42:17;;;;;;;9.18;5.80;;;;;;;16.27;54.59;94949.31;4966373;28;20205;-71
2022/04/27 07:44:42;;;;;;;7.05;5.60;;;;;;;16.42;54.01;94945.81;4972659;28;20223;-71
2022/04/27 07:47:09;;;;;;;11.35;5.63;;;;;;;16.47;54.00;94948.72;4977711;28;20236;-71
2022/04/27 07:49:34;;;;;;;5.88;5.13;;;;;;;16.43;53.98;94956.22;4984784;28;20224;-68
2022/04/27 07:52:00;;;;;;;8.77;6.03;;;;;;;16.50;53.20;94943.03;4965629;28;20227;-67
2022/04/27 07:54:25;;;;;;;6.60;4.95;;;;;;;16.54;54.57;94941.63;4967618;28;20201;-68
2022/04/27 07:56:51;;;;;;;8.50;5.28;;;;;;;16.65;53.42;94942.94;4972386;28;20202;-71
2022/04/27 07:59:16;;;;;;;6.03;4.90;;;;;;;16.69;53.28;94939.72;4957264;28;20267;-70
2022/04/27 08:01:42;;;;;;;7.07;4.45;;;;;;;16.73;52.89;94943.66;4960250;28;20228;-67
2022/04/27 08:04:07;;;;;;;6.22;4.88;;;;;;;16.86;52.63;94942.13;4970981;28;20248;-68
2022/04/27 08:06:33;;;;;;;10.95;4.90;;;;;;;16.91;52.75;94937.06;4974830;28;20220;-71
2022/04/27 08:08:58;;;;;;;7.70;4.93;;;;;;;17.02;53.19;94936.53;4964756;28;20254;-67
2022/04/27 08:11:24;;;;;;;8.05;4.93;;;;;;;17.08;53.19;94926.94;4965604;28;20224;-69
2022/04/27 08:13:49;;;;;;;8.18;4.80;;;;;;;17.26;51.56;94932.59;4942826;28;20225;-70
2022/04/27 08:16:15;;;;;;;4.85;4.45;;;;;;;17.26;51.07;94931.78;4962298;28;20226;-68
2022/04/27 08:18:40;;;;;;;7.20;4.13;;;;;;;17.29;51.02;94931.38;4955090;28;20254;-68
2022/04/27 08:21:16;;;;;;;7.07;4.35;;;;;;;17.36;50.34;94924.28;4966634;28;20208;-67
2022/04/27 08:23:42;;;;;;;4.35;3.80;;;;;;;17.47;49.52;94920.25;4971000;28;20258;-70
2022/04/27 08:26:10;;;;;;;5.38;3.88;;;;;;;17.55;49.96;94922.75;4973771;28;20220;-62
2022/04/27 08:28:39;;;;;;;5.10;3.63;;;;;;;17.62;49.39;94920.94;4965434;28;20216;-63
2022/04/27 08:31:05;;;;;;;7.65;4.40;;;;;;;17.74;49.05;94913.22;4974707;28;20335;-61
2022/04/27 08:33:31;;;;;;;8.82;4.53;;;;;;;17.80;49.10;94920.41;4983900;28;20271;-62
2022/04/27 08:35:59;;;;;;;6.65;4.30;;;;;;;17.89;49.91;94913.13;4963430;28;20205;-64
2022/04/27 08:38:24;;;;;;;5.45;4.30;;;;;;;17.79;49.99;94919.59;4962513;28;20279;-63
2022/04/27 08:40:50;;;;;;;9.80;4.97;;;;;;;17.71;51.76;94916.28;4958270;28;20228;-62
2022/04/27 08:43:16;;;;;;;5.72;4.10;;;;;;;17.75;50.04;94906.88;4975764;28;20220;-64
2022/04/27 08:45:44;;;;;;;4.82;4.00;;;;;;;17.87;49.72;94912.47;4971454;28;20293;-63
2022/04/27 08:48:11;;;;;;;9.02;4.82;;;;;;;17.95;51.04;94909.66;4974958;28;20192;-63
2022/04/27 08:50:38;;;;;;;5.38;4.10;;;;;;;18.03;50.59;94907.63;4965692;28;20236;-63
2022/04/27 08:53:03;;;;;;;6.05;4.00;;;;;;;18.10;48.21;94906.84;4962588;28;20224;-63
2022/04/27 08:55:29;;;;;;;7.32;4.72;;;;;;;17.98;49.17;94896.75;4944073;28;20231;-63
2022/04/27 08:58:11;;;;;;;6.13;4.80;;;;;;;18.04;49.15;94906.63;4975301;28;20235;-63
2022/04/27 09:00:37;;;;;;;8.32;4.30;;;;;;;18.16;46.19;94903.34;4984656;28;20350;-65
2022/04/27 09:03:22;;;;;;;5.18;4.35;;;;;;;18.32;45.43;94902.16;4971327;28;20212;-64
2022/04/27 09:05:50;;;;;;;7.22;4.25;;;;;;;18.27;46.72;94895.59;4966474;28;20224;-64
2022/04/27 09:08:16;;;;;;;8.80;4.60;;;;;;;18.53;46.59;94886.00;4961295;28;20580;-63
2022/04/27 09:10:41;;;;;;;5.57;4.68;;;;;;;18.63;48.27;94893.56;4955013;28;20227;-65
2022/04/27 09:13:07;;;;;;;7.35;4.45;;;;;;;18.59;48.09;94892.38;4971432;28;20226;-63
2022/04/27 09:15:32;;;;;;;6.35;5.07;;;;;;;18.66;48.01;94887.88;4963871;28;20223;-64
2022/04/27 09:20:52;;;;;;;5.47;4.53;;;;;;;18.93;47.33;94884.19;4970116;28;20246;-66
2022/04/27 09:23:37;;;;;;;7.75;4.38;;;;;;;19.20;44.67;94878.81;4971998;28;20501;-64
2022/04/27 09:26:22;;;;;;;6.03;4.35;;;;;;;19.44;45.12;94876.50;4976362;28;20274;-64
2022/04/27 09:28:53;;;;;;;7.78;4.32;;;;;;;19.60;44.33;94878.69;4955118;28;20224;-64
2022/04/27 09:31:27;;;;;;;8.57;4.35;;;;;;;19.66;43.44;94872.53;4975699;28;20243;-64
2022/04/27 09:34:27;;;;;;;6.70;4.35;;;;;;;19.69;42.69;94873.97;4979368;28;21467;-64
2022/04/27 09:36:53;;;;;;;6.63;4.28;;;;;;;19.32;41.73;94866.47;4976306;28;20222;-67
2022/04/27 09:39:24;;;;;;;4.63;4.00;;;;;;;19.57;43.49;94871.13;4963685;28;20224;-64
2022/04/27 09:41:50;;;;;;;4.57;4.05;;;;;;;19.66;42.84;94867.22;4978635;28;20214;-63
2022/04/27 09:44:31;;;;;;;9.43;4.10;;;;;;;20.12;41.26;94870.69;4971165;28;20326;-63
2022/04/27 09:47:02;;;;;;;6.20;3.78;;;;;;;20.13;39.21;94865.13;4973110;28;20233;-61
2022/04/27 09:49:28;;;;;;;5.10;3.70;;;;;;;20.17;38.83;94858.31;4961183;28;20236;-61
2022/04/27 09:51:55;;;;;;;5.72;4.00;;;;;;;20.28;38.60;94843.47;4954998;28;20248;-63
2022/04/27 09:54:23;;;;;;;5.78;3.80;;;;;;;20.38;39.77;94851.00;4949176;28;20227;-63
2022/04/27 09:57:10;;;;;;;9.38;5.32;;;;;;;20.83;39.56;94849.03;4958936;28;20627;-63
2022/04/27 09:59:36;;;;;;;10.68;4.50;;;;;;;21.11;39.47;94850.38;4950690;28;20224;-62
2022/04/27 10:02:07;;;;;;;7.00;3.78;;;;;;;21.13;38.71;94851.00;4971309;28;20278;-62
2022/04/27 10:04:34;;;;;;;5.13;3.42;;;;;;;21.17;37.71;94848.69;4958739;28;20227;-63
2022/04/27 10:07:02;;;;;;;6.13;3.80;;;;;;;21.26;37.58;94850.03;4980030;28;20233;-62
2022/04/27 10:09:29;;;;;;;7.40;3.78;;;;;;;21.41;37.71;94850.53;4959702;28;20204;-62
2022/04/27 10:11:57;;;;;;;6.97;3.72;;;;;;;21.47;37.59;94846.97;4959175;28;20200;-62
2022/04/27 10:14:22;;;;;;;4.30;3.35;;;;;;;21.62;41.16;94843.06;4956156;28;20237;-63
2022/04/27 10:16:50;;;;;;;5.32;3.47;;;;;;;21.72;39.01;94852.22;4958592;28;20232;-62
2022/04/27 10:19:17;;;;;;;5.93;2.85;;;;;;;21.83;36.28;94839.09;4962837;28;20239;-62
2022/04/27 10:21:56;;;;;;;6.32;3.30;;;;;;;22.01;36.51;94842.56;4965149;28;20224;-62
2022/04/27 10:24:49;;;;;;;8.63;3.15;;;;;;;22.09;33.86;94835.25;4968447;28;20199;-63
2022/04/27 10:27:21;;;;;;;7.15;2.78;;;;;;;22.00;33.83;94835.59;4972030;28;20583;-63
2022/04/27 10:29:54;;;;;;;4.43;3.00;;;;;;;22.17;36.22;94840.28;4961317;28;20232;-63
2022/04/27 10:32:38;;;;;;;6.85;3.63;;;;;;;22.46;35.31;94836.78;4956309;28;20247;-64
2022/04/27 10:35:13;;;;;;;9.25;3.13;;;;;;;22.71;34.24;94829.59;4968667;28;20230;-62
2022/04/27 10:37:48;;;;;;;4.90;2.70;;;;;;;22.73;33.92;94822.97;4960865;28;20258;-62
2022/04/27 10:40:32;;;;;;;6.72;2.70;;;;;;;22.85;34.91;94818.44;4942928;28;20234;-62
2022/04/27 10:43:24;;;;;;;4.45;2.70;;;;;;;23.03;35.09;94811.34;4959916;28;20231;-62
2022/04/27 10:45:50;;;;;;;6.05;2.85;;;;;;;23.21;34.54;94813.06;4937873;28;20220;-62
2022/04/27 10:48:18;;;;;;;6.03;2.83;;;;;;;23.45;35.00;94816.53;4950612;28;20201;-63
2022/04/27 10:51:03;;;;;;;5.68;2.95;;;;;;;23.34;33.27;94807.47;4948262;28;20260;-65
2022/04/27 10:53:38;;;;;;;6.03;2.97;;;;;;;23.10;32.29;94801.31;4954849;28;20242;-63
2022/04/27 10:56:19;;;;;;;4.65;2.50;;;;;;;22.97;33.04;94791.63;4951566;28;20278;-62
2022/04/27 10:58:45;;;;;;;7.40;3.17;;;;;;;23.20;34.99;94785.44;4957594;28;20220;-62
2022/04/27 11:01:10;;;;;;;6.38;3.03;;;;;;;23.46;33.35;94796.69;4965529;28;20225;-62
2022/04/27 11:03:38;;;;;;;6.20;2.47;;;;;;;23.63;32.32;94786.84;4959890;28;20228;-62
2022/04/27 11:06:13;;;;;;;3.47;2.55;;;;;;;23.80;33.06;94781.56;4965507;28;20217;-62
2022/04/27 11:08:52;;;;;;;8.93;3.15;;;;;;;23.91;33.46;94787.94;4942662;28;20233;-64
2022/04/27 11:11:18;;;;;;;7.07;2.67;;;;;;;23.86;31.51;94780.59;4959203;28;20279;-61
2022/04/27 11:13:46;;;;;;;7.18;2.85;;;;;;;23.94;30.19;94779.38;4953155;28;20747;-62
2022/04/27 11:16:14;;;;;;;7.68;2.58;;;;;;;23.98;31.43;94767.13;4947053;28;20245;-64
2022/04/27 11:18:56;;;;;;;3.70;2.75;;;;;;;24.03;30.38;94766.38;4960629;28;20221;-64
2022/04/27 11:21:25;;;;;;;4.25;2.72;;;;;;;24.12;31.01;94768.44;4946633;28;20264;-64
2022/04/27 11:23:53;;;;;;;6.97;2.90;;;;;;;24.10;30.98;94767.84;4960339;28;20209;-62
2022/04/27 11:26:18;;;;;;;4.57;2.90;;;;;;;24.02;30.37;94759.38;4962480;28;20320;-64
2022/04/27 11:28:45;;;;;;;4.70;2.85;;;;;;;24.17;31.73;94760.47;4963018;28;20304;-64
2022/04/27 11:31:12;;;;;;;4.60;3.25;;;;;;;24.31;31.44;94749.41;4935923;28;20245;-64
2022/04/27 11:33:40;;;;;;;7.20;3.10;;;;;;;24.52;31.42;94750.56;4952759;28;20227;-64
2022/04/27 11:36:26;;;;;;;6.07;3.22;;;;;;;24.86;30.30;94746.78;4946067;28;20212;-63
2022/04/27 11:38:53;;;;;;;5.68;3.10;;;;;;;25.23;29.83;94737.34;4971132;28;20231;-63
2022/04/27 11:41:24;;;;;;;6.43;2.80;;;;;;;25.37;29.74;94744.00;4979394;28;20638;-63
2022/04/27 11:43:51;;;;;;;4.78;2.83;;;;;;;25.52;29.88;94740.66;4974377;28;20232;-63
2022/04/27 11:46:18;;;;;;;3.55;2.40;;;;;;;25.67;29.64;94742.72;4974912;28;20227;-63